Terminal Aerodrome Forecast
Issued by NWS Des Moines, IA

Home | Current Version | Previous Version | Text Only | Print | Product List | Glossary On
Versions: 1 2 3 4 5 6 7 8 9 10 11 12 13 14 15 16 17 18 19 20 21 22 23 24
000
FTUS43 KDMX 190520
TAFALO
TAF
KALO 190520Z 1906/2006 15007KT P6SM SKC
     FM191000 16007KT 5SM BR SCT030
     FM191600 17017G25KT P6SM BKN050
     FM192000 18019G28KT P6SM SCT050
     FM200200 18012KT P6SM OVC020=

USA.gov is the U.S. government's official web portal to all federal, state and local government web resources and services.